Time;durP1;ratioP1;P1;durP2;ratioP2;P2;SDS_P1;SDS_P2;PMS_P1;PMS_P2;Temp;Humidity;BMP_temperature;BMP_pressure;BME280_temperature;BME280_humidity;BME280_pressure;Samples;Min_cycle;Max_cycle;Signal;HPM_P1;HPM_P2
2022/08/02 00:01:01;;;;;;;5.38;2.47;;;22.30;61.60;;;23.34;49.86;97809.16;5070244;28;20346;-41
2022/08/02 00:03:34;;;;;;;2.78;2.20;;;22.30;61.50;;;23.34;49.27;97808.28;5070119;28;20064;-40
2022/08/02 00:06:02;;;;;;;3.08;2.00;;;22.20;62.60;;;23.29;49.48;97809.03;5085487;28;20037;-40
2022/08/02 00:08:31;;;;;;;2.90;2.05;;;22.20;60.90;;;23.28;49.25;97804.66;5069492;28;20384;-40
2022/08/02 00:10:59;;;;;;;2.08;1.88;;;22.30;60.50;;;23.27;49.25;97808.44;5070125;28;20059;-40
2022/08/02 00:13:27;;;;;;;4.28;2.58;;;22.30;60.50;;;23.26;49.40;97812.22;5068891;28;20056;-40
2022/08/02 00:15:55;;;;;;;3.63;2.05;;;22.30;60.20;;;23.25;49.54;97816.00;5069284;28;20056;-40
2022/08/02 00:18:23;;;;;;;2.70;2.13;;;22.30;61.70;;;23.18;50.02;97818.81;5070137;28;20052;-40
2022/08/02 00:20:50;;;;;;;2.97;2.20;;;22.20;61.80;;;23.10;50.83;97816.47;5068720;28;20032;-40
2022/08/02 00:23:18;;;;;;;3.67;2.10;;;22.10;62.60;;;23.06;50.80;97817.22;5085030;28;20238;-40
2022/08/02 00:25:46;;;;;;;3.42;2.53;;;22.00;63.40;;;23.02;51.42;97805.97;5085069;28;20048;-40
2022/08/02 00:28:23;;;;;;;4.50;2.33;;;22.00;63.50;;;22.96;51.73;97810.44;5083865;28;20059;-40
2022/08/02 00:30:57;;;;;;;5.38;2.70;;;22.00;65.00;;;22.93;51.87;97802.78;5068871;28;20063;-40
2022/08/02 00:33:25;;;;;;;2.55;2.25;;;22.00;66.30;;;22.89;52.23;97800.78;5068793;28;20057;-40
2022/08/02 00:36:14;;;;;;;3.13;2.67;;;21.90;66.90;;;22.83;52.89;97807.97;5067907;28;20062;-40
2022/08/02 00:38:42;;;;;;;2.97;2.30;;;21.80;67.10;;;22.78;52.74;97810.59;5068152;28;20052;-40
2022/08/02 00:41:15;;;;;;;2.75;2.40;;;21.80;67.60;;;22.74;53.18;97812.09;5069804;28;20315;-40
2022/08/02 00:43:45;;;;;;;2.80;2.53;;;21.70;68.10;;;22.71;53.37;97805.25;5069669;28;20258;-40
2022/08/02 00:46:15;;;;;;;3.88;2.40;;;21.70;67.90;;;22.72;53.35;97806.06;5069448;28;20049;-40
2022/08/02 00:48:43;;;;;;;3.47;2.53;;;21.80;67.40;;;22.70;53.29;97800.06;5068954;28;20060;-40
2022/08/02 00:51:12;;;;;;;3.30;2.50;;;21.80;67.80;;;22.71;53.02;97799.84;5068571;28;20062;-40
2022/08/02 00:53:40;;;;;;;2.85;2.22;;;21.70;67.40;;;22.69;53.36;97803.84;5069748;28;20250;-40
2022/08/02 00:56:08;;;;;;;2.90;2.15;;;21.70;67.50;;;22.69;53.24;97812.81;5067355;28;20273;-40
2022/08/02 00:58:37;;;;;;;3.50;2.47;;;21.70;67.60;;;22.65;53.54;97803.50;5068429;28;20350;-40
2022/08/02 01:01:04;;;;;;;4.75;2.75;;;21.70;68.10;;;22.64;53.26;97807.25;5068096;28;20040;-40
2022/08/02 01:03:32;;;;;;;3.05;2.38;;;21.60;67.80;;;22.64;53.75;97809.16;5068325;28;20045;-40
2022/08/02 01:06:00;;;;;;;3.40;2.40;;;21.60;68.10;;;22.61;53.36;97807.75;5068641;28;20228;-40
2022/08/02 01:08:43;;;;;;;3.70;2.63;;;21.60;68.20;;;22.60;53.36;97806.06;5067190;28;20062;-40
2022/08/02 01:11:11;;;;;;;3.20;2.65;;;21.50;68.60;;;22.55;53.44;97806.78;5067684;28;20361;-40
2022/08/02 01:13:39;;;;;;;2.72;2.45;;;21.50;68.30;;;22.54;53.75;97809.72;5069406;28;20054;-40
2022/08/02 01:16:18;;;;;;;2.90;2.67;;;21.50;68.30;;;22.51;53.38;97810.22;5068874;28;20057;-40
2022/08/02 01:18:56;;;;;;;4.53;2.63;;;21.50;69.30;;;22.47;53.21;97822.56;5083389;28;20055;-40
2022/08/02 01:21:50;;;;;;;2.35;2.15;;;21.50;68.40;;;22.45;53.12;97816.53;5068216;28;20044;-40
2022/08/02 01:24:36;;;;;;;4.07;2.33;;;21.50;68.00;;;22.45;52.54;97821.97;5083890;28;20052;-40
2022/08/02 01:27:50;;;;;;;2.63;2.22;;;21.40;67.50;;;22.41;52.52;97817.03;5084170;28;20071;-40
2022/08/02 01:30:19;;;;;;;3.55;2.00;;;21.40;67.10;;;22.38;52.63;97817.47;5068582;28;20057;-40
2022/08/02 01:32:57;;;;;;;3.33;2.08;;;21.40;66.50;;;22.36;52.42;97826.91;5083934;28;20048;-40
2022/08/02 01:35:42;;;;;;;2.97;2.13;;;21.40;66.40;;;22.32;52.44;97821.13;5067891;28;20054;-40
2022/08/02 01:38:47;;;;;;;2.67;2.08;;;21.40;66.30;;;22.35;52.42;97834.25;5080732;28;20256;-40
2022/08/02 01:41:20;;;;;;;2.33;1.77;;;21.40;66.70;;;22.34;52.73;97826.34;5065356;28;20052;-40
2022/08/02 01:43:52;;;;;;;3.35;2.13;;;21.40;66.20;;;22.29;52.58;97828.91;5068323;28;20211;-40
2022/08/02 01:46:21;;;;;;;2.38;2.13;;;21.30;66.70;;;22.26;52.94;97834.81;5067739;28;20048;-40
2022/08/02 01:48:51;;;;;;;3.60;2.88;;;21.30;66.90;;;22.22;53.03;97842.53;5084574;28;20048;-40
2022/08/02 01:52:20;;;;;;;4.05;2.13;;;21.10;67.10;;;22.17;52.82;97847.81;5082966;28;20060;-40
2022/08/02 01:54:13;;;;;;;2.60;2.40;;;21.10;67.60;;;22.12;52.82;97848.53;5068060;28;20376;-40
2022/08/02 01:56:43;;;;;;;3.15;2.42;;;21.10;67.40;;;22.12;52.96;97850.38;5067542;28;20049;-40
2022/08/02 01:59:15;;;;;;;3.53;2.35;;;21.10;67.20;;;22.09;52.70;97848.97;5046728;28;20048;-40
2022/08/02 02:01:45;;;;;;;2.60;2.00;;;21.10;67.50;;;22.06;53.11;97841.28;5047281;28;20351;-40
2022/08/02 02:04:15;;;;;;;2.75;2.30;;;21.00;67.10;;;22.03;52.72;97839.88;5048618;28;20044;-40
2022/08/02 02:06:45;;;;;;;2.97;1.92;;;21.00;67.00;;;22.02;52.73;97840.09;5047006;28;20056;-40
2022/08/02 02:09:15;;;;;;;4.13;2.20;;;21.10;66.60;;;22.03;52.76;97847.19;5047478;28;20048;-40
2022/08/02 02:11:45;;;;;;;2.63;2.42;;;21.10;66.30;;;22.02;52.46;97843.66;5047584;28;20369;-40
2022/08/02 02:14:35;;;;;;;4.07;2.33;;;21.10;66.10;;;22.07;52.43;97848.38;5045830;28;20075;-40
2022/08/02 02:17:03;;;;;;;2.58;1.90;;;21.10;65.80;;;22.09;52.51;97848.16;5046132;28;20056;-40
2022/08/02 02:19:35;;;;;;;3.40;2.20;;;21.10;65.50;;;22.02;52.63;97842.81;5048087;28;20063;-40
2022/08/02 02:22:04;;;;;;;3.65;2.75;;;21.00;65.80;;;21.97;52.28;97843.50;5046701;28;20063;-40
2022/08/02 02:24:34;;;;;;;2.88;2.05;;;21.00;65.80;;;21.92;52.28;97840.66;5047954;28;20056;-40
2022/08/02 02:27:07;;;;;;;3.70;2.03;;;20.90;66.40;;;21.90;52.48;97839.22;5047128;28;20343;-40
2022/08/02 02:29:38;;;;;;;2.65;2.40;;;20.80;66.10;;;21.90;52.54;97836.53;5045393;28;20049;-40
2022/08/02 02:32:06;;;;;;;6.38;2.03;;;20.90;66.10;;;21.89;52.30;97834.84;5045842;28;20052;-40
2022/08/02 02:34:41;;;;;;;3.42;2.05;;;20.80;66.00;;;21.88;52.30;97823.19;5046530;28;20051;-40
2022/08/02 02:37:22;;;;;;;2.08;1.88;;;20.90;65.90;;;21.90;52.35;97812.94;5046888;28;20060;-40
2022/08/02 02:39:53;;;;;;;3.97;2.30;;;20.90;65.90;;;21.89;52.44;97803.19;5030198;28;20063;-40
2022/08/02 02:42:27;;;;;;;4.10;2.20;;;20.90;66.40;;;21.87;52.08;97810.72;5045535;28;20060;-40
2022/08/02 02:44:57;;;;;;;3.20;2.47;;;20.90;65.60;;;21.85;52.31;97804.69;5047570;28;20057;-40
2022/08/02 02:47:29;;;;;;;2.78;2.20;;;20.80;65.40;;;21.81;52.27;97798.91;5045619;28;20059;-40
2022/08/02 02:50:10;;;;;;;3.30;2.35;;;20.80;65.50;;;21.85;52.10;97790.31;5045289;28;20057;-40
2022/08/02 02:52:39;;;;;;;3.63;2.53;;;20.80;65.50;;;21.87;52.51;97799.88;5045315;28;20063;-40
2022/08/02 02:55:09;;;;;;;2.30;2.10;;;20.90;65.40;;;21.87;52.20;97797.16;5047286;28;20049;-40
2022/08/02 02:57:39;;;;;;;3.78;2.30;;;20.90;65.10;;;21.88;52.28;97798.00;5046878;28;20065;-40
2022/08/02 03:00:11;;;;;;;2.88;2.42;;;21.00;65.10;;;21.87;52.11;97799.03;5046624;28;20048;-40
2022/08/02 03:02:41;;;;;;;2.97;2.50;;;20.90;65.30;;;21.86;52.51;97806.34;5045237;28;20040;-40
2022/08/02 03:05:11;;;;;;;3.47;2.35;;;20.90;65.30;;;21.82;52.41;97805.16;5047359;28;20239;-40
2022/08/02 03:07:40;;;;;;;3.80;2.30;;;20.80;65.20;;;21.79;52.54;97809.16;5045230;28;20037;-40
2022/08/02 03:10:11;;;;;;;4.68;2.30;;;20.80;65.30;;;21.75;52.38;97809.81;5028507;28;20056;-40
2022/08/02 03:12:39;;;;;;;4.10;2.33;;;20.80;65.70;;;21.72;52.71;97808.41;5045826;28;20242;-40
2022/08/02 03:15:11;;;;;;;3.15;2.15;;;20.70;65.70;;;21.68;52.63;97803.69;5047189;28;20281;-40
2022/08/02 03:17:43;;;;;;;3.57;2.53;;;20.70;66.00;;;21.64;52.37;97806.03;5042595;28;20053;-40
2022/08/02 03:20:19;;;;;;;2.90;2.30;;;20.60;66.10;;;21.62;52.80;97810.84;5025977;28;20057;-40
2022/08/02 03:22:48;;;;;;;4.05;2.40;;;20.60;66.70;;;21.58;52.56;97804.22;5027455;28;20048;-40
2022/08/02 03:25:17;;;;;;;3.30;2.13;;;20.50;66.30;;;21.58;53.00;97809.66;5027236;28;20348;-40
2022/08/02 03:27:45;;;;;;;3.40;2.20;;;20.60;66.30;;;21.58;53.07;97804.22;5026772;28;20057;-40
2022/08/02 03:30:14;;;;;;;3.38;2.15;;;20.60;66.20;;;21.58;52.96;97813.19;5040752;28;20055;-40
2022/08/02 03:32:45;;;;;;;2.40;2.20;;;20.60;66.20;;;21.57;52.69;97806.09;5046278;28;20053;-40
2022/08/02 03:35:16;;;;;;;4.35;2.65;;;20.60;66.20;;;21.56;52.82;97812.59;5045444;28;20180;-40
2022/08/02 03:37:54;;;;;;;2.63;2.15;;;20.60;66.10;;;21.58;52.74;97815.06;5046078;28;20057;-41
2022/08/02 03:40:24;;;;;;;3.13;2.80;;;20.60;66.00;;;21.55;52.84;97824.44;5044875;28;20057;-40
2022/08/02 03:42:53;;;;;;;3.35;2.47;;;20.70;65.80;;;21.52;52.66;97816.81;5045413;28;20366;-40
2022/08/02 03:45:22;;;;;;;4.88;3.60;;;20.60;65.80;;;21.50;52.82;97818.06;5044872;28;20045;-40
2022/08/02 03:47:51;;;;;;;2.67;2.30;;;20.50;66.10;;;21.47;52.69;97823.94;5044460;28;20059;-40
2022/08/02 03:50:21;;;;;;;3.30;2.92;;;20.50;66.10;;;21.42;53.03;97824.56;5044731;28;20365;-40
2022/08/02 03:52:50;;;;;;;3.20;2.60;;;20.40;66.40;;;21.40;52.88;97832.09;5043918;28;20057;-40
2022/08/02 03:55:18;;;;;;;5.82;3.05;;;20.50;66.40;;;;;;5046144;28;20086;-40
2022/08/02 03:57:45;;;;;;;2.90;2.60;;;20.40;66.40;;;21.34;53.28;97835.72;5046669;28;20238;-40
2022/08/02 04:00:20;;;;;;;3.95;2.70;;;20.40;66.60;;;21.26;53.16;97839.56;5046237;28;20255;-40
2022/08/02 04:02:49;;;;;;;5.38;3.00;;;20.20;67.60;;;21.23;53.32;97840.03;5046710;28;20041;-40
2022/08/02 04:05:18;;;;;;;3.50;3.17;;;20.20;67.40;;;21.19;53.65;97841.50;5046410;28;20041;-40
2022/08/02 04:07:47;;;;;;;5.13;2.95;;;20.20;67.60;;;21.15;53.86;97851.13;5046435;28;20057;-40
2022/08/02 04:13:30;;;;;;;3.88;2.90;;;20.00;68.50;;;21.08;53.66;97850.38;5045872;28;20247;-40
2022/08/02 04:16:29;;;;;;;5.43;2.55;;;20.10;68.50;;;21.08;53.56;97853.91;5044912;28;20052;-40
2022/08/02 04:19:02;;;;;;;4.65;2.65;;;20.10;68.90;;;21.07;53.61;97851.41;5039238;28;20068;-40
2022/08/02 04:21:39;;;;;;;5.28;3.28;;;20.10;68.60;;;21.04;53.71;97853.53;5045034;28;20053;-40
2022/08/02 04:24:27;;;;;;;3.55;2.63;;;20.10;68.60;;;21.06;53.78;97852.50;5045756;28;20045;-40
2022/08/02 04:26:57;;;;;;;3.40;2.50;;;20.00;68.40;;;21.07;53.91;97859.53;5046230;28;20103;-40
2022/08/02 04:29:47;;;;;;;4.80;3.00;;;20.00;68.20;;;21.07;54.05;97854.13;5045630;28;20061;-40
2022/08/02 04:32:16;;;;;;;4.47;2.60;;;20.00;68.40;;;21.04;54.14;97864.34;5044324;28;20354;-40
2022/08/02 04:34:45;;;;;;;4.97;3.22;;;20.00;68.20;;;21.02;54.09;97865.63;5046449;28;20053;-40
2022/08/02 04:37:36;;;;;;;3.65;2.80;;;20.00;68.20;;;20.99;54.40;97861.47;5045361;28;20067;-40
2022/08/02 04:40:14;;;;;;;4.28;2.75;;;20.00;68.60;;;20.99;54.22;97866.88;5027602;28;20057;-40
2022/08/02 04:42:42;;;;;;;3.13;2.63;;;20.00;69.30;;;20.96;54.26;97864.66;5045497;28;20064;-40
2022/08/02 04:45:10;;;;;;;4.40;2.67;;;20.00;69.10;;;20.95;54.74;97854.84;5049398;28;20063;-40
2022/08/02 04:47:43;;;;;;;3.72;2.72;;;20.00;69.20;;;20.96;54.48;97856.53;5047906;28;20044;-40
2022/08/02 04:50:30;;;;;;;3.55;2.78;;;20.00;69.30;;;20.98;54.78;97859.84;5048557;28;20075;-40
2022/08/02 04:52:58;;;;;;;3.30;2.90;;;20.00;69.30;;;21.04;54.65;97850.00;5048713;28;20262;-40
2022/08/02 04:55:27;;;;;;;5.82;3.25;;;20.10;69.00;;;21.11;54.41;97858.03;5049435;28;20262;-40
2022/08/02 04:57:57;;;;;;;4.65;3.38;;;20.20;68.80;;;21.15;54.28;97870.06;5050055;28;20040;-40
2022/08/02 05:00:27;;;;;;;5.70;2.40;;;20.20;68.70;;;21.19;54.60;97868.56;5047294;28;20057;-40
2022/08/02 05:02:56;;;;;;;8.75;2.83;;;20.30;68.60;;;21.19;54.30;97869.41;5048225;28;20064;-40
2022/08/02 05:05:25;;;;;;;3.30;2.83;;;20.30;68.70;;;21.20;54.43;97864.81;5049724;28;20343;-40
2022/08/02 05:07:54;;;;;;;2.90;2.60;;;20.30;68.70;;;21.22;54.58;97868.13;5049259;28;20051;-40
2022/08/02 05:10:22;;;;;;;3.50;2.80;;;20.30;68.40;;;21.23;54.62;97869.81;5048752;28;20063;-40
2022/08/02 05:12:50;;;;;;;3.17;2.70;;;20.40;68.40;;;21.24;54.69;97868.72;5045980;28;20061;-40
2022/08/02 05:15:18;;;;;;;3.50;2.72;;;20.30;68.60;;;21.28;54.29;97867.22;5049668;28;20067;-40
2022/08/02 05:17:47;;;;;;;2.75;2.50;;;20.40;68.30;;;21.32;54.61;97870.31;5049615;28;20060;-40
2022/08/02 05:20:16;;;;;;;3.78;2.75;;;20.40;68.20;;;21.36;54.09;97866.09;5048201;28;20057;-40
2022/08/02 05:22:45;;;;;;;3.75;3.08;;;20.50;68.10;;;21.38;54.32;97870.25;5049443;28;20047;-40
2022/08/02 05:25:13;;;;;;;3.88;2.25;;;20.50;68.00;;;21.42;54.21;97863.34;5047330;28;20335;-40
2022/08/02 05:27:41;;;;;;;4.07;2.70;;;20.60;67.80;;;21.40;54.45;97870.88;5048075;28;20060;-40
2022/08/02 05:30:10;;;;;;;3.42;2.65;;;20.60;67.90;;;21.40;54.51;97861.88;5047277;28;20250;-40
2022/08/02 05:32:51;;;;;;;4.22;2.90;;;20.50;68.00;;;21.40;54.52;97859.19;5048177;28;20087;-39
2022/08/02 05:35:22;;;;;;;4.93;2.38;;;20.60;68.10;;;21.38;54.39;97858.59;5047121;28;20075;-40
2022/08/02 05:37:51;;;;;;;3.08;2.30;;;20.60;68.20;;;21.36;54.46;97855.28;5045545;28;20041;-41
2022/08/02 05:40:20;;;;;;;5.97;2.67;;;20.50;68.60;;;21.34;54.67;97860.91;5048271;28;20053;-41
2022/08/02 05:42:56;;;;;;;2.35;2.08;;;20.50;68.80;;;;;;5047882;28;20041;-40
2022/08/02 05:45:24;;;;;;;6.57;2.42;;;20.50;68.80;;;21.37;54.76;97867.78;5047718;28;20059;-40
2022/08/02 05:47:52;;;;;;;3.67;2.40;;;20.60;68.60;;;21.34;54.75;97866.31;5048454;28;20071;-41
2022/08/02 05:50:20;;;;;;;4.38;2.60;;;20.50;68.90;;;21.29;54.80;97870.78;5047989;28;20041;-40
2022/08/02 05:53:19;;;;;;;2.88;2.35;;;20.40;69.70;;;21.30;55.07;97867.84;5048791;28;20247;-41
2022/08/02 05:56:01;;;;;;;10.77;2.40;;;20.40;69.60;;;21.34;54.89;97877.16;5047784;28;20049;-41
2022/08/02 05:58:48;;;;;;;3.05;2.65;;;20.50;69.10;;;21.35;54.95;97878.81;5046869;28;20232;-41
2022/08/02 06:01:36;;;;;;;3.60;2.50;;;20.50;69.10;;;21.36;54.72;97868.81;5046943;28;20057;-41
2022/08/02 06:04:13;;;;;;;2.85;2.35;;;20.50;69.80;;;21.40;54.69;97878.13;5047324;28;20045;-40
2022/08/02 06:06:43;;;;;;;2.47;1.90;;;20.50;69.20;;;21.46;54.82;97880.00;5047533;28;20045;-40
2022/08/02 06:09:17;;;;;;;5.40;2.47;;;20.60;69.10;;;21.44;55.16;97882.09;5047660;28;20068;-41
2022/08/02 06:11:58;;;;;;;2.70;2.10;;;20.60;69.10;;;21.51;54.95;97882.84;5047933;28;20057;-41
2022/08/02 06:14:33;;;;;;;3.40;2.70;;;20.70;69.00;;;21.52;54.96;97878.25;5048826;28;20057;-41
2022/08/02 06:17:04;;;;;;;7.05;2.95;;;20.80;69.00;;;21.55;55.00;97889.47;5049096;28;20051;-41
2022/08/02 06:19:35;;;;;;;2.90;2.60;;;20.80;68.90;;;21.55;55.00;97875.09;5048155;28;20049;-41
2022/08/02 06:22:19;;;;;;;4.18;2.88;;;20.80;69.00;;;21.61;55.20;97888.56;5031284;28;20063;-41
2022/08/02 06:25:08;;;;;;;4.40;3.20;;;20.80;68.80;;;21.57;54.98;97878.41;5048373;28;20059;-41
2022/08/02 06:28:00;;;;;;;2.75;2.40;;;20.70;69.20;;;21.57;54.95;97884.66;5047724;28;20068;-41
2022/08/02 06:30:30;;;;;;;2.72;2.28;;;20.70;69.20;;;21.60;55.00;97873.38;5046828;28;20053;-41
2022/08/02 06:33:00;;;;;;;3.00;2.53;;;20.80;68.90;;;21.66;54.92;97874.34;5045945;28;20065;-41
2022/08/02 06:35:45;;;;;;;4.93;2.22;;;20.90;68.60;;;21.75;54.98;97881.13;5046222;28;20467;-41
2022/08/02 06:38:26;;;;;;;3.63;2.60;;;21.00;68.50;;;21.75;54.73;97873.00;5047465;28;20053;-42
2022/08/02 06:41:02;;;;;;;4.25;3.05;;;21.00;68.80;;;21.77;55.04;97880.88;5046249;28;20247;-41
2022/08/02 06:43:51;;;;;;;3.72;2.83;;;21.00;68.50;;;21.75;54.70;97880.28;5047654;28;20286;-41
2022/08/02 06:46:20;;;;;;;4.72;2.85;;;20.90;68.90;;;21.71;55.37;97874.47;5047759;28;20063;-41
2022/08/02 06:49:08;;;;;;;4.15;3.10;;;20.90;69.10;;;21.79;54.93;97873.34;5046455;28;20055;-41
2022/08/02 06:51:36;;;;;;;4.25;3.60;;;21.00;68.40;;;21.81;54.95;97882.91;5047274;28;20052;-41
2022/08/02 06:54:05;;;;;;;4.95;3.60;;;21.10;68.10;;;21.85;54.89;97882.44;5045753;28;20045;-41
2022/08/02 06:56:33;;;;;;;4.78;4.22;;;21.10;68.80;;;21.91;54.98;97895.09;5043285;28;20072;-41
2022/08/02 06:59:01;;;;;;;5.50;4.53;;;21.20;67.70;;;21.93;54.47;97893.81;5047355;28;20053;-41
2022/08/02 07:01:32;;;;;;;5.85;5.25;;;21.20;67.50;;;21.93;54.38;97888.38;5046014;28;20052;-41
2022/08/02 07:04:06;;;;;;;5.90;5.10;;;21.20;67.40;;;21.98;54.54;97887.69;5046867;28;20045;-41
2022/08/02 07:06:34;;;;;;;5.80;5.20;;;21.30;67.50;;;22.01;54.64;97887.25;5046246;28;20053;-41
2022/08/02 07:09:02;;;;;;;6.07;4.30;;;21.30;67.10;;;22.05;54.53;97888.44;5046283;28;20060;-41
2022/08/02 07:11:48;;;;;;;5.28;4.55;;;21.40;67.20;;;22.13;54.15;97890.81;5045724;28;20362;-41
2022/08/02 07:14:15;;;;;;;6.95;4.75;;;21.40;66.90;;;22.21;54.39;97887.78;5046623;28;20061;-41
2022/08/02 07:16:44;;;;;;;5.95;4.30;;;21.60;66.60;;;22.29;54.05;97883.97;5045183;28;20063;-42
2022/08/02 07:19:12;;;;;;;6.93;5.13;;;21.70;66.20;;;22.37;53.88;97893.66;5046845;28;20362;-43
2022/08/02 07:21:39;;;;;;;5.75;4.57;;;21.80;65.50;;;22.36;53.55;97881.97;5046079;28;20374;-42
2022/08/02 07:24:24;;;;;;;4.97;4.53;;;21.80;65.60;;;22.44;53.50;97882.72;5046195;28;20041;-42
2022/08/02 07:26:52;;;;;;;6.80;4.60;;;21.80;65.00;;;22.48;53.40;97882.00;5046748;28;20067;-42
2022/08/02 07:29:39;;;;;;;5.57;4.65;;;21.90;65.40;;;22.60;53.52;97885.59;5044898;28;20036;-43
2022/08/02 07:32:16;;;;;;;6.13;5.47;;;22.00;65.80;;;22.71;52.79;97892.09;5045856;28;20061;-42
2022/08/02 07:34:46;;;;;;;7.60;5.63;;;22.20;63.80;;;22.76;52.43;97886.81;5047609;28;20049;-42
2022/08/02 07:37:22;;;;;;;7.10;4.63;;;22.20;63.80;;;22.83;52.30;97896.72;5040557;28;20445;-42
2022/08/02 07:40:12;;;;;;;7.28;5.15;;;22.30;64.60;;;22.88;52.38;97900.38;5043762;28;20052;-42
2022/08/02 07:42:52;;;;;;;13.55;5.75;;;22.30;63.50;;;22.91;52.66;97904.50;5044569;28;20156;-42
2022/08/02 07:45:26;;;;;;;5.75;4.93;;;22.40;63.70;;;22.94;52.31;97895.91;5045322;28;20055;-42
2022/08/02 07:47:55;;;;;;;5.72;5.22;;;22.30;63.20;;;22.91;52.14;97901.78;5044131;28;20361;-42
2022/08/02 07:50:24;;;;;;;8.13;4.25;;;22.20;63.30;;;22.94;51.99;97909.47;5044441;28;20063;-43
2022/08/02 07:52:52;;;;;;;6.78;4.32;;;22.30;63.20;;;22.92;51.91;97904.28;5044774;28;20053;-42
2022/08/02 07:55:25;;;;;;;6.43;5.00;;;22.30;63.10;;;22.96;52.08;97905.47;5046299;28;20324;-42
2022/08/02 07:58:10;;;;;;;6.38;4.47;;;22.30;63.10;;;22.97;51.54;97904.41;5024664;28;20053;-42
2022/08/02 08:00:44;;;;;;;5.22;4.57;;;22.40;62.30;;;23.01;51.61;97912.88;5047206;28;20052;-42
2022/08/02 08:03:12;;;;;;;6.28;4.90;;;22.40;62.00;;;23.04;51.70;97908.94;5054365;28;20059;-42
2022/08/02 08:05:40;;;;;;;8.05;4.22;;;22.40;62.30;;;23.10;51.32;97903.38;5056832;28;20052;-43
2022/08/02 08:08:09;;;;;;;9.32;4.43;;;22.50;62.20;;;23.11;50.99;97907.75;5053537;28;20055;-42
2022/08/02 08:10:44;;;;;;;6.13;4.00;;;22.50;61.30;;;23.15;50.65;97895.34;5055409;28;20054;-43
2022/08/02 08:13:12;;;;;;;6.25;4.13;;;22.60;60.50;;;23.18;50.73;97896.75;5052373;28;20052;-42
2022/08/02 08:15:41;;;;;;;5.65;4.50;;;22.70;60.90;;;23.24;50.71;97900.44;5053762;28;20054;-42
2022/08/02 08:18:21;;;;;;;5.10;4.60;;;22.80;60.20;;;23.28;50.60;97904.31;5052415;28;20055;-43
2022/08/02 08:20:50;;;;;;;6.72;4.78;;;22.80;60.30;;;23.30;50.31;97902.19;5069101;28;20213;-43
2022/08/02 08:23:18;;;;;;;4.55;4.00;;;22.80;60.10;;;23.34;50.69;97896.06;5069141;28;20358;-42
2022/08/02 08:25:47;;;;;;;5.95;4.60;;;22.80;60.40;;;23.42;50.02;97902.19;5068219;28;20360;-43
2022/08/02 08:28:15;;;;;;;5.95;5.05;;;22.90;59.40;;;23.45;50.35;97902.53;5068558;28;20044;-42
2022/08/02 08:30:43;;;;;;;5.22;4.28;;;23.00;59.80;;;23.52;50.43;97902.44;5067392;28;20257;-43
2022/08/02 08:33:10;;;;;;;6.90;4.85;;;23.00;59.80;;;23.52;50.19;97903.25;5067771;28;20060;-42
2022/08/02 08:35:38;;;;;;;5.45;3.85;;;23.00;59.60;;;23.54;50.08;97906.53;5068477;28;20056;-43
2022/08/02 08:38:07;;;;;;;4.32;3.65;;;23.00;59.70;;;23.61;50.10;97897.44;5069599;28;20063;-42
2022/08/02 08:40:35;;;;;;;4.72;4.28;;;23.10;59.50;;;23.65;50.03;97894.03;5069045;28;20238;-42
2022/08/02 08:43:04;;;;;;;5.72;4.75;;;23.20;59.40;;;23.70;50.19;97890.56;5068836;28;20243;-42
2022/08/02 08:45:32;;;;;;;4.45;4.05;;;23.20;59.50;;;23.75;50.00;97891.50;5069162;28;20052;-42
2022/08/02 08:48:12;;;;;;;5.93;4.28;;;23.30;59.10;;;23.82;49.75;97885.13;5069415;28;20041;-42
2022/08/02 08:50:59;;;;;;;5.55;4.47;;;23.40;58.90;;;23.88;49.39;97882.25;5069698;28;20249;-43
2022/08/02 08:53:30;;;;;;;4.93;4.22;;;23.50;58.50;;;23.93;49.63;97887.00;5067776;28;20381;-42
2022/08/02 08:56:05;;;;;;;4.53;4.07;;;23.50;58.60;;;23.99;49.39;97886.03;5068080;28;20586;-42
2022/08/02 08:58:32;;;;;;;5.25;4.00;;;23.60;58.40;;;24.06;49.13;97886.72;5066606;28;20056;-42
2022/08/02 09:01:00;;;;;;;4.05;3.65;;;23.60;58.10;;;24.10;49.00;97887.88;5067605;28;20063;-42
2022/08/02 09:03:28;;;;;;;6.28;4.65;;;23.60;57.90;;;24.15;48.63;97887.97;5068204;28;20048;-42
2022/08/02 09:06:02;;;;;;;4.43;4.03;;;23.70;57.60;;;24.15;48.04;97884.41;5069092;28;20049;-42
2022/08/02 09:08:31;;;;;;;4.55;4.13;;;23.70;56.90;;;24.19;48.40;97877.41;5068330;28;20052;-42
2022/08/02 09:11:00;;;;;;;4.63;4.22;;;23.80;57.20;;;24.23;48.40;97875.03;5068473;28;20327;-42
2022/08/02 09:13:31;;;;;;;6.38;4.15;;;23.80;57.20;;;24.29;48.43;97876.78;5068195;28;20056;-43
2022/08/02 09:16:12;;;;;;;5.88;4.40;;;23.80;57.70;;;24.35;48.18;97867.66;5069449;28;20330;-42
2022/08/02 09:18:44;;;;;;;4.82;4.32;;;23.90;56.90;;;24.42;48.03;97878.38;5057906;28;20070;-42
2022/08/02 09:21:15;;;;;;;5.30;4.57;;;23.90;56.80;;;24.45;47.93;97870.56;5048660;28;20119;-42
2022/08/02 09:23:47;;;;;;;5.38;4.57;;;24.00;56.70;;;24.50;47.61;97873.34;5048751;28;20290;-43
2022/08/02 09:26:22;;;;;;;7.88;4.45;;;24.00;56.10;;;24.54;47.67;97860.13;5048770;28;20045;-42
2022/08/02 09:29:00;;;;;;;6.60;4.63;;;24.10;55.70;;;24.59;47.32;97868.38;5079174;28;20051;-43
2022/08/02 09:31:28;;;;;;;4.53;4.00;;;24.20;55.40;;;24.62;47.37;97869.78;5048715;28;20061;-42
2022/08/02 09:33:58;;;;;;;4.65;3.60;;;24.20;55.90;;;24.67;47.47;97867.97;5048878;28;20064;-42
2022/08/02 09:36:38;;;;;;;4.78;4.38;;;24.20;55.60;;;24.73;46.89;97858.00;5049434;28;20049;-43
2022/08/02 09:39:10;;;;;;;5.70;4.68;;;24.30;55.10;;;24.79;46.82;97858.91;5048141;28;20060;-43
2022/08/02 09:41:41;;;;;;;4.65;4.25;;;24.40;54.60;;;24.84;46.90;97864.44;5048013;28;20057;-42
2022/08/02 09:44:15;;;;;;;7.22;5.00;;;24.40;55.00;;;24.88;46.52;97860.13;5048990;28;20037;-43
2022/08/02 09:46:45;;;;;;;4.82;3.92;;;24.50;53.90;;;24.88;45.75;97866.41;5047959;28;20041;-42
2022/08/02 09:49:18;;;;;;;3.70;3.35;;;24.50;53.70;;;24.84;45.85;97873.41;5047961;28;20083;-42
2022/08/02 09:51:46;;;;;;;;;;;24.40;53.50;;;24.88;46.30;97865.59;5080468;28;20048;-42
2022/08/02 09:54:22;;;;;;;4.93;3.63;;;24.40;53.50;;;24.89;45.97;97873.50;5048178;28;19947;-43
2022/08/02 09:56:58;;;;;;;4.53;3.90;;;24.30;53.70;;;24.91;46.18;97868.63;5048425;28;20253;-42
2022/08/02 09:59:28;;;;;;;4.25;3.83;;;24.40;54.20;;;24.98;45.50;97871.19;5048733;28;20383;-43
2022/08/02 10:01:58;;;;;;;4.88;4.15;;;24.50;53.50;;;25.07;45.25;97872.41;5079219;28;20047;-42
2022/08/02 10:04:31;;;;;;;5.05;3.95;;;24.70;53.10;;;25.17;44.79;97863.56;5048525;28;20078;-42
2022/08/02 10:07:16;;;;;;;4.28;3.88;;;24.80;52.50;;;25.26;45.40;97859.38;5048252;28;20051;-43
2022/08/02 10:09:45;;;;;;;3.88;3.47;;;24.90;53.20;;;25.37;45.22;97859.50;5047688;28;20065;-43
2022/08/02 10:12:14;;;;;;;4.65;4.03;;;25.00;52.90;;;25.48;44.75;97861.31;5047767;28;20268;-42
2022/08/02 10:14:43;;;;;;;4.82;4.40;;;25.10;52.20;;;25.60;44.70;97853.00;5047891;28;20103;-42
2022/08/02 10:17:12;;;;;;;4.20;3.60;;;25.20;52.10;;;25.73;44.68;97850.72;5046079;28;20349;-43
2022/08/02 10:19:40;;;;;;;4.95;4.05;;;25.40;51.90;;;25.88;44.61;97850.09;5078939;28;20059;-43
2022/08/02 10:22:28;;;;;;;6.60;4.10;;;25.60;51.60;;;26.05;43.55;97850.00;5046983;28;20368;-42
2022/08/02 10:24:56;;;;;;;4.05;3.65;;;25.80;50.80;;;26.18;43.80;97847.97;5079336;28;20037;-42
2022/08/02 10:27:28;;;;;;;5.57;3.53;;;25.90;50.40;;;26.28;43.30;97851.63;5080060;28;20053;-43
2022/08/02 10:30:16;;;;;;;5.43;3.75;;;26.00;50.50;;;26.42;43.11;97848.47;5073306;28;20052;-44
2022/08/02 10:32:46;;;;;;;3.28;2.97;;;26.10;50.20;;;26.49;43.14;97843.63;5047171;28;20049;-42
2022/08/02 10:35:20;;;;;;;5.10;4.60;;;26.20;49.50;;;26.58;42.78;97844.81;5079303;28;20074;-43
2022/08/02 10:38:00;;;;;;;4.07;3.67;;;26.30;48.90;;;26.68;42.03;97842.19;5046686;28;20216;-43
2022/08/02 10:40:54;;;;;;;4.72;3.70;;;26.40;48.50;;;26.73;41.83;97852.31;5077057;28;20254;-43
2022/08/02 10:43:31;;;;;;;5.57;3.88;;;26.50;47.50;;;26.82;41.28;97839.84;5045784;28;20079;-42
2022/08/02 10:46:21;;;;;;;3.95;3.40;;;26.50;46.70;;;26.82;41.41;97839.84;5047057;28;20331;-43
2022/08/02 10:49:15;;;;;;;3.88;3.20;;;26.50;46.00;;;26.80;41.61;97833.81;5047149;28;20055;-42